EGGD/BRS METAR and TAF weather

Enter ICAO airport designator
Station Type Date Time Source
EGGD METAR 2019/02/23 16:50 UTC NOAA

EGGD 231650Z AUTO 14005KT 9000 NCD 13/08 Q1032


Station Type Date Time Source
EGGD Decoded METAR 2019/02/23 16:50 UTC NOAA

Bristol / Lulsgate , United Kingdom (EGGD) 51-23N 002-43W
Feb 23, 2019 - 11:50 AM EST / 2019.02.23 1650 UTC
Wind: from the SE (140 degrees) at 6 MPH (5 KT):0
Visibility: 5 mile(s):0
Temperature: 55 F (13 C)
Dew Point: 46 F (8 C)
Relative Humidity: 71%
Pressure (altimeter): 30.47 in. Hg (1032 hPa)
ob: EGGD 231650Z AUTO 14005KT 9000 NCD 13/08 Q1032
cycle: 17

Station Type Date Time Source
EGGD TAF 2019/02/23 16:09 UTC NOAA

TAF
AMD TAF
AMD EGGD 231606Z 2316/2412 14007KT 9000 FEW030
TEMPO 2316/2401 9999 PROB40 2401/2410 3000 BR PROB40 2410/2412 9999


Example: see airport list